Kensington, Canada
Current Conditions -  °F | °C
As of 9:00 PM on Monday 24 Nov 2014 (Local Time) from CYYG Reporting Station
Light Rain Light Rain  
Wind Chill: 12°   Ceiling: 1800
Heat Index: 12°   Visibility: 12mi
Dew Point: 11°   Wind: 28mph
Humidity: 94%   Direction: 170°S
Pressure: 29.68"   Gusts: 37mph
Location:  46.43°N, 63.65°W
Report Text: CYYG 250100Z 17024G32KT 12SM -RA FEW006 OVC018 12/11 A2968 RMK SF1NS7 SLP050
Loading
Personal Weather Stations






























Interactive Weather Map New forecast layout! Learn more

10-Day Weather Forecast

Advertisements
Track Severe Weather on mobile